CPX257 Details

Departure: Grantley Adams International Airport (TBPB)
Arrival: Miami International Airport (KMIA) at N/A
Route: BGI UA555 ILURI MEEGL Y421 HAGIT Y308 FOWEE FLIPR6
Notes:


Current Weather Information
TBPB 250500Z 10012KT 9999 SCT020 28/23 Q1015 NOSIG
KMIA 250453Z 18004KT 10SM FEW030 FEW250 28/25 A2993 RMK AO2 SLP136 T02780250 403390261